Melrose, Massachusetts
Current Conditions -  °F | °C
As of 10:54 PM on Monday 22 Dec 2014 (Local Time) from KBOS Reporting Station
Overcast Overcast  
Wind Chill: 36°   Ceiling: 5500
Heat Index: 42°   Visibility: 10mi
Dew Point: 36°   Wind: 12mph
Humidity: 79%   Direction: 110°ESE
Pressure: 30.32"   Gusts: NA
Location:  42.46°N, 71.06°W
Report Text: KBOS 230354Z 11010KT 10SM OVC055 06/02 A3032 RMK AO2 SLP266 T00560022
Loading
Personal Weather Stations






























Interactive Weather Map New forecast layout! Learn more

10-Day Weather Forecast

Advertisements
Track Severe Weather on mobile